sensor_id;sensor_type;location;lat;lon;timestamp;pressure;altitude;pressure_sealevel;temperature
72278;BMP280;61204;49.980;8.358;2023-03-24T00:00:09;99492.75;;;12.42
72278;BMP280;61204;49.980;8.358;2023-03-24T00:02:38;99495.00;;;12.46
72278;BMP280;61204;49.980;8.358;2023-03-24T00:05:10;99500.75;;;12.52
72278;BMP280;61204;49.980;8.358;2023-03-24T00:07:39;99513.63;;;12.63
72278;BMP280;61204;49.980;8.358;2023-03-24T00:10:08;99504.06;;;12.64
72278;BMP280;61204;49.980;8.358;2023-03-24T00:12:42;99511.59;;;12.64
72278;BMP280;61204;49.980;8.358;2023-03-24T00:15:10;99508.69;;;12.60
72278;BMP280;61204;49.980;8.358;2023-03-24T00:17:43;99505.72;;;12.55
72278;BMP280;61204;49.980;8.358;2023-03-24T00:20:12;99500.75;;;12.52
72278;BMP280;61204;49.980;8.358;2023-03-24T00:22:40;99497.91;;;12.50
72278;BMP280;61204;49.980;8.358;2023-03-24T00:25:12;99493.91;;;12.53
72278;BMP280;61204;49.980;8.358;2023-03-24T00:27:40;99493.84;;;12.51
72278;BMP280;61204;49.980;8.358;2023-03-24T00:30:06;99490.66;;;12.56
72278;BMP280;61204;49.980;8.358;2023-03-24T00:32:35;99483.28;;;12.61
72278;BMP280;61204;49.980;8.358;2023-03-24T00:35:07;99479.66;;;12.56
72278;BMP280;61204;49.980;8.358;2023-03-24T00:37:36;99476.78;;;12.54
72278;BMP280;61204;49.980;8.358;2023-03-24T00:40:04;99467.31;;;12.42
72278;BMP280;61204;49.980;8.358;2023-03-24T00:42:36;99459.41;;;12.34
72278;BMP280;61204;49.980;8.358;2023-03-24T00:45:03;99451.69;;;12.31
72278;BMP280;61204;49.980;8.358;2023-03-24T00:47:31;99446.91;;;12.31
72278;BMP280;61204;49.980;8.358;2023-03-24T00:50:05;99440.59;;;12.28
72278;BMP280;61204;49.980;8.358;2023-03-24T00:52:35;99439.00;;;12.23
72278;BMP280;61204;49.980;8.358;2023-03-24T00:55:04;99415.41;;;12.18
72278;BMP280;61204;49.980;8.358;2023-03-24T00:57:31;99411.41;;;12.21
72278;BMP280;61204;49.980;8.358;2023-03-24T01:00:01;99408.16;;;12.25
72278;BMP280;61204;49.980;8.358;2023-03-24T01:02:44;99414.31;;;12.25
72278;BMP280;61204;49.980;8.358;2023-03-24T01:05:12;99406.06;;;12.25
72278;BMP280;61204;49.980;8.358;2023-03-24T01:07:38;99400.53;;;12.23
72278;BMP280;61204;49.980;8.358;2023-03-24T01:10:06;99396.97;;;12.21
72278;BMP280;61204;49.980;8.358;2023-03-24T01:12:37;99391.03;;;12.26
72278;BMP280;61204;49.980;8.358;2023-03-24T01:15:05;99388.38;;;12.28
72278;BMP280;61204;49.980;8.358;2023-03-24T01:17:39;99396.19;;;12.34
72278;BMP280;61204;49.980;8.358;2023-03-24T01:20:05;99380.28;;;12.33
72278;BMP280;61204;49.980;8.358;2023-03-24T01:22:35;99385.19;;;12.34
72278;BMP280;61204;49.980;8.358;2023-03-24T01:25:06;99385.78;;;12.33
72278;BMP280;61204;49.980;8.358;2023-03-24T01:27:33;99381.66;;;12.32
72278;BMP280;61204;49.980;8.358;2023-03-24T01:30:02;99375.84;;;12.25
72278;BMP280;61204;49.980;8.358;2023-03-24T01:32:30;99375.78;;;12.23
72278;BMP280;61204;49.980;8.358;2023-03-24T01:34:55;99368.78;;;12.20
72278;BMP280;61204;49.980;8.358;2023-03-24T01:37:21;99369.31;;;12.17
72278;BMP280;61204;49.980;8.358;2023-03-24T01:39:49;99362.91;;;12.12
72278;BMP280;61204;49.980;8.358;2023-03-24T01:42:16;99355.28;;;12.11
72278;BMP280;61204;49.980;8.358;2023-03-24T01:44:46;99348.19;;;12.06
72278;BMP280;61204;49.980;8.358;2023-03-24T01:47:15;99345.28;;;12.01
72278;BMP280;61204;49.980;8.358;2023-03-24T01:49:46;99365.22;;;12.02
72278;BMP280;61204;49.980;8.358;2023-03-24T01:52:23;99347.81;;;11.97
72278;BMP280;61204;49.980;8.358;2023-03-24T01:55:06;99349.78;;;11.95
72278;BMP280;61204;49.980;8.358;2023-03-24T01:57:43;99341.34;;;11.91
72278;BMP280;61204;49.980;8.358;2023-03-24T02:00:17;99346.06;;;11.88
72278;BMP280;61204;49.980;8.358;2023-03-24T02:02:47;99330.28;;;11.89
72278;BMP280;61204;49.980;8.358;2023-03-24T02:05:24;99326.91;;;11.90
72278;BMP280;61204;49.980;8.358;2023-03-24T02:10:33;99313.88;;;11.91
72278;BMP280;61204;49.980;8.358;2023-03-24T02:13:01;99307.88;;;11.94
72278;BMP280;61204;49.980;8.358;2023-03-24T02:15:28;99299.56;;;11.92
72278;BMP280;61204;49.980;8.358;2023-03-24T02:18:11;99292.84;;;11.95
72278;BMP280;61204;49.980;8.358;2023-03-24T02:33:16;99243.53;;;11.84
72278;BMP280;61204;49.980;8.358;2023-03-24T02:36:32;99238.59;;;11.80
72278;BMP280;61204;49.980;8.358;2023-03-24T02:42:16;99239.81;;;11.77
72278;BMP280;61204;49.980;8.358;2023-03-24T02:56:21;99291.28;;;11.77
72278;BMP280;61204;49.980;8.358;2023-03-24T02:59:03;99279.91;;;11.68
72278;BMP280;61204;49.980;8.358;2023-03-24T03:01:43;99269.22;;;11.59
72278;BMP280;61204;49.980;8.358;2023-03-24T03:04:26;99260.06;;;11.54
72278;BMP280;61204;49.980;8.358;2023-03-24T03:07:02;99258.81;;;11.57
72278;BMP280;61204;49.980;8.358;2023-03-24T03:09:37;99256.09;;;11.57
72278;BMP280;61204;49.980;8.358;2023-03-24T03:12:11;99241.06;;;11.58
72278;BMP280;61204;49.980;8.358;2023-03-24T03:14:59;99236.97;;;11.59
72278;BMP280;61204;49.980;8.358;2023-03-24T03:17:34;99235.75;;;11.62
72278;BMP280;61204;49.980;8.358;2023-03-24T03:20:08;99223.44;;;11.63
72278;BMP280;61204;49.980;8.358;2023-03-24T03:22:53;99227.41;;;11.60
72278;BMP280;61204;49.980;8.358;2023-03-24T03:25:27;99235.63;;;11.60
72278;BMP280;61204;49.980;8.358;2023-03-24T03:28:01;99244.16;;;11.66
72278;BMP280;61204;49.980;8.358;2023-03-24T03:30:34;99235.59;;;11.74
72278;BMP280;61204;49.980;8.358;2023-03-24T03:33:11;99241.94;;;11.79
72278;BMP280;61204;49.980;8.358;2023-03-24T03:41:14;99245.75;;;11.87
72278;BMP280;61204;49.980;8.358;2023-03-24T03:43:42;99249.75;;;11.84
72278;BMP280;61204;49.980;8.358;2023-03-24T03:46:10;99252.69;;;11.88
72278;BMP280;61204;49.980;8.358;2023-03-24T03:48:36;99260.13;;;12.17
72278;BMP280;61204;49.980;8.358;2023-03-24T03:51:04;99265.25;;;12.25
72278;BMP280;61204;49.980;8.358;2023-03-24T03:53:47;99275.09;;;12.46
72278;BMP280;61204;49.980;8.358;2023-03-24T03:56:18;99268.41;;;12.51
72278;BMP280;61204;49.980;8.358;2023-03-24T03:58:48;99274.16;;;12.57
72278;BMP280;61204;49.980;8.358;2023-03-24T04:01:15;99269.16;;;12.69
72278;BMP280;61204;49.980;8.358;2023-03-24T04:03:52;99265.88;;;12.73
72278;BMP280;61204;49.980;8.358;2023-03-24T04:06:36;99266.25;;;13.17
72278;BMP280;61204;49.980;8.358;2023-03-24T04:12:38;99276.78;;;13.58
72278;BMP280;61204;49.980;8.358;2023-03-24T04:18:50;99285.09;;;13.60
72278;BMP280;61204;49.980;8.358;2023-03-24T04:30:30;99283.91;;;13.65
72278;BMP280;61204;49.980;8.358;2023-03-24T04:35:52;99282.44;;;13.62
72278;BMP280;61204;49.980;8.358;2023-03-24T04:38:30;99277.94;;;13.53
72278;BMP280;61204;49.980;8.358;2023-03-24T04:41:00;99282.75;;;13.52
72278;BMP280;61204;49.980;8.358;2023-03-24T04:43:30;99279.75;;;13.46
72278;BMP280;61204;49.980;8.358;2023-03-24T04:46:00;99270.63;;;13.41
72278;BMP280;61204;49.980;8.358;2023-03-24T04:48:29;99257.81;;;13.30
72278;BMP280;61204;49.980;8.358;2023-03-24T04:50:55;99250.91;;;13.29
72278;BMP280;61204;49.980;8.358;2023-03-24T04:53:24;99252.66;;;13.21
72278;BMP280;61204;49.980;8.358;2023-03-24T04:58:31;99217.72;;;13.07
72278;BMP280;61204;49.980;8.358;2023-03-24T05:00:57;99207.44;;;13.08
72278;BMP280;61204;49.980;8.358;2023-03-24T05:03:23;99193.22;;;12.96
72278;BMP280;61204;49.980;8.358;2023-03-24T05:05:49;99187.81;;;12.98
72278;BMP280;61204;49.980;8.358;2023-03-24T05:08:17;99192.13;;;13.03
72278;BMP280;61204;49.980;8.358;2023-03-24T05:10:44;99179.69;;;13.02
72278;BMP280;61204;49.980;8.358;2023-03-24T05:13:10;99170.81;;;13.03
72278;BMP280;61204;49.980;8.358;2023-03-24T05:15:39;99161.63;;;12.97
72278;BMP280;61204;49.980;8.358;2023-03-24T05:18:05;99169.50;;;12.87
72278;BMP280;61204;49.980;8.358;2023-03-24T05:20:31;99192.13;;;12.85
72278;BMP280;61204;49.980;8.358;2023-03-24T05:22:57;99202.41;;;12.84
72278;BMP280;61204;49.980;8.358;2023-03-24T05:25:22;99184.41;;;12.81
72278;BMP280;61204;49.980;8.358;2023-03-24T05:27:47;99201.59;;;12.82
72278;BMP280;61204;49.980;8.358;2023-03-24T05:30:13;99205.25;;;12.87
72278;BMP280;61204;49.980;8.358;2023-03-24T05:32:40;99212.81;;;12.86
72278;BMP280;61204;49.980;8.358;2023-03-24T05:35:06;99230.75;;;12.89
72278;BMP280;61204;49.980;8.358;2023-03-24T05:37:35;99240.28;;;13.04
72278;BMP280;61204;49.980;8.358;2023-03-24T05:40:00;99229.38;;;13.06
72278;BMP280;61204;49.980;8.358;2023-03-24T05:42:25;99251.31;;;13.04
72278;BMP280;61204;49.980;8.358;2023-03-24T05:44:51;99249.50;;;13.10
72278;BMP280;61204;49.980;8.358;2023-03-24T05:47:16;99255.72;;;13.11
72278;BMP280;61204;49.980;8.358;2023-03-24T05:49:44;99269.78;;;13.19
72278;BMP280;61204;49.980;8.358;2023-03-24T05:52:16;99284.97;;;13.20
72278;BMP280;61204;49.980;8.358;2023-03-24T05:54:41;99289.59;;;13.15
72278;BMP280;61204;49.980;8.358;2023-03-24T05:57:09;99296.91;;;13.09
72278;BMP280;61204;49.980;8.358;2023-03-24T05:59:38;99305.56;;;13.19
72278;BMP280;61204;49.980;8.358;2023-03-24T06:02:03;99316.81;;;13.25
72278;BMP280;61204;49.980;8.358;2023-03-24T06:04:32;99334.31;;;13.34
72278;BMP280;61204;49.980;8.358;2023-03-24T06:06:57;99339.84;;;13.34
72278;BMP280;61204;49.980;8.358;2023-03-24T06:09:27;99343.41;;;13.36
72278;BMP280;61204;49.980;8.358;2023-03-24T06:11:59;99359.81;;;13.34
72278;BMP280;61204;49.980;8.358;2023-03-24T06:14:29;99346.28;;;13.40
72278;BMP280;61204;49.980;8.358;2023-03-24T06:16:54;99347.41;;;13.33
72278;BMP280;61204;49.980;8.358;2023-03-24T06:19:23;99345.13;;;13.28
72278;BMP280;61204;49.980;8.358;2023-03-24T06:21:51;99355.59;;;13.31
72278;BMP280;61204;49.980;8.358;2023-03-24T06:24:18;99343.25;;;13.32
72278;BMP280;61204;49.980;8.358;2023-03-24T06:26:45;99345.13;;;13.28
72278;BMP280;61204;49.980;8.358;2023-03-24T06:29:13;99334.56;;;13.22
72278;BMP280;61204;49.980;8.358;2023-03-24T06:31:41;99337.28;;;13.20
72278;BMP280;61204;49.980;8.358;2023-03-24T06:34:08;99341.34;;;13.19
72278;BMP280;61204;49.980;8.358;2023-03-24T06:36:34;99337.31;;;13.22
72278;BMP280;61204;49.980;8.358;2023-03-24T06:39:00;99331.19;;;13.24
72278;BMP280;61204;49.980;8.358;2023-03-24T06:41:28;99335.97;;;13.23
72278;BMP280;61204;49.980;8.358;2023-03-24T06:43:55;99345.75;;;13.26
72278;BMP280;61204;49.980;8.358;2023-03-24T06:46:21;99340.72;;;13.21
72278;BMP280;61204;49.980;8.358;2023-03-24T06:48:47;99333.00;;;13.17
72278;BMP280;61204;49.980;8.358;2023-03-24T06:51:13;99332.53;;;13.23
72278;BMP280;61204;49.980;8.358;2023-03-24T06:53:38;99331.19;;;13.24
72278;BMP280;61204;49.980;8.358;2023-03-24T06:56:05;99345.13;;;13.28
72278;BMP280;61204;49.980;8.358;2023-03-24T06:58:32;99339.16;;;13.33
72278;BMP280;61204;49.980;8.358;2023-03-24T07:00:59;99334.50;;;13.38
72278;BMP280;61204;49.980;8.358;2023-03-24T07:03:26;99337.13;;;13.52
72278;BMP280;61204;49.980;8.358;2023-03-24T07:05:51;99341.28;;;13.53
72278;BMP280;61204;49.980;8.358;2023-03-24T07:08:17;99331.75;;;13.38
72278;BMP280;61204;49.980;8.358;2023-03-24T07:10:43;99326.97;;;13.38
72278;BMP280;61204;49.980;8.358;2023-03-24T07:13:09;99340.31;;;13.28
72278;BMP280;61204;49.980;8.358;2023-03-24T07:15:35;99334.56;;;13.22
72278;BMP280;61204;49.980;8.358;2023-03-24T07:18:01;99328.91;;;13.18
72278;BMP280;61204;49.980;8.358;2023-03-24T07:20:27;99325.91;;;13.12
72278;BMP280;61204;49.980;8.358;2023-03-24T07:22:55;99328.47;;;13.08
72278;BMP280;61204;49.980;8.358;2023-03-24T07:25:23;99331.72;;;13.02
72278;BMP280;61204;49.980;8.358;2023-03-24T07:27:53;99326.66;;;12.97
72278;BMP280;61204;49.980;8.358;2023-03-24T07:30:20;99308.72;;;12.78
72278;BMP280;61204;49.980;8.358;2023-03-24T07:32:47;99293.56;;;12.61
72278;BMP280;61204;49.980;8.358;2023-03-24T07:35:13;99276.66;;;12.51
72278;BMP280;61204;49.980;8.358;2023-03-24T07:37:40;99266.84;;;12.46
72278;BMP280;61204;49.980;8.358;2023-03-24T07:40:09;99266.66;;;12.42
72278;BMP280;61204;49.980;8.358;2023-03-24T07:42:37;99253.63;;;12.42
72278;BMP280;61204;49.980;8.358;2023-03-24T07:45:04;99259.56;;;12.37
72278;BMP280;61204;49.980;8.358;2023-03-24T07:47:33;99261.16;;;12.42
72278;BMP280;61204;49.980;8.358;2023-03-24T07:49:58;99243.59;;;12.49
72278;BMP280;61204;49.980;8.358;2023-03-24T07:52:24;99247.91;;;12.54
72278;BMP280;61204;49.980;8.358;2023-03-24T07:54:49;99248.25;;;12.62
72278;BMP280;61204;49.980;8.358;2023-03-24T07:57:15;99248.38;;;12.48
72278;BMP280;61204;49.980;8.358;2023-03-24T07:59:41;99240.47;;;12.56
72278;BMP280;61204;49.980;8.358;2023-03-24T08:02:11;99233.91;;;12.48
72278;BMP280;61204;49.980;8.358;2023-03-24T08:04:49;99231.53;;;12.40
72278;BMP280;61204;49.980;8.358;2023-03-24T08:07:17;99240.75;;;12.47
72278;BMP280;61204;49.980;8.358;2023-03-24T08:09:44;99248.28;;;12.46
72278;BMP280;61204;49.980;8.358;2023-03-24T08:12:09;99252.53;;;12.49
72278;BMP280;61204;49.980;8.358;2023-03-24T08:14:35;99244.31;;;12.49
72278;BMP280;61204;49.980;8.358;2023-03-24T08:17:00;99242.88;;;12.48
72278;BMP280;61204;49.980;8.358;2023-03-24T08:19:26;99237.25;;;12.62
72278;BMP280;61204;49.980;8.358;2023-03-24T08:21:51;99228.78;;;12.56
72278;BMP280;61204;49.980;8.358;2023-03-24T08:24:17;99230.78;;;12.55
72278;BMP280;61204;49.980;8.358;2023-03-24T08:26:44;99243.13;;;12.54
72278;BMP280;61204;49.980;8.358;2023-03-24T08:29:10;99229.31;;;12.52
72278;BMP280;61204;49.980;8.358;2023-03-24T08:31:36;99232.13;;;12.54
72278;BMP280;61204;49.980;8.358;2023-03-24T08:34:04;99242.84;;;12.64
72278;BMP280;61204;49.980;8.358;2023-03-24T08:36:30;99228.94;;;12.60
72278;BMP280;61204;49.980;8.358;2023-03-24T08:38:56;99231.00;;;12.44
72278;BMP280;61204;49.980;8.358;2023-03-24T08:41:23;99229.81;;;12.15
72278;BMP280;61204;49.980;8.358;2023-03-24T08:43:54;99246.75;;;12.10
72278;BMP280;61204;49.980;8.358;2023-03-24T08:46:21;99242.75;;;12.13
72278;BMP280;61204;49.980;8.358;2023-03-24T08:48:46;99256.59;;;12.15
72278;BMP280;61204;49.980;8.358;2023-03-24T08:51:13;99227.06;;;12.15
72278;BMP280;61204;49.980;8.358;2023-03-24T08:53:41;99243.63;;;12.17
72278;BMP280;61204;49.980;8.358;2023-03-24T08:56:07;99233.34;;;12.18
72278;BMP280;61204;49.980;8.358;2023-03-24T08:58:34;99256.31;;;11.93
72278;BMP280;61204;49.980;8.358;2023-03-24T09:01:00;99277.16;;;11.68
72278;BMP280;61204;49.980;8.358;2023-03-24T09:03:26;99282.75;;;11.55
72278;BMP280;61204;49.980;8.358;2023-03-24T09:05:56;99308.56;;;11.50
72278;BMP280;61204;49.980;8.358;2023-03-24T09:08:22;99268.34;;;11.40
72278;BMP280;61204;49.980;8.358;2023-03-24T09:10:48;99266.81;;;11.37
72278;BMP280;61204;49.980;8.358;2023-03-24T09:13:15;99244.28;;;11.39
72278;BMP280;61204;49.980;8.358;2023-03-24T09:15:49;99243.94;;;11.47
72278;BMP280;61204;49.980;8.358;2023-03-24T09:18:17;99247.59;;;11.51
72278;BMP280;61204;49.980;8.358;2023-03-24T09:20:46;99245.56;;;11.52
72278;BMP280;61204;49.980;8.358;2023-03-24T09:23:12;99271.13;;;11.56
72278;BMP280;61204;49.980;8.358;2023-03-24T09:25:38;99276.19;;;11.62
72278;BMP280;61204;49.980;8.358;2023-03-24T09:28:04;99292.16;;;11.65
72278;BMP280;61204;49.980;8.358;2023-03-24T09:30:32;99296.59;;;11.72
72278;BMP280;61204;49.980;8.358;2023-03-24T09:33:02;99319.66;;;11.81
72278;BMP280;61204;49.980;8.358;2023-03-24T09:35:28;99327.19;;;11.81
72278;BMP280;61204;49.980;8.358;2023-03-24T09:37:53;99307.47;;;11.70
72278;BMP280;61204;49.980;8.358;2023-03-24T09:40:25;99313.59;;;11.69
72278;BMP280;61204;49.980;8.358;2023-03-24T09:43:04;99306.66;;;11.68
72278;BMP280;61204;49.980;8.358;2023-03-24T09:46:03;99299.75;;;11.67
72278;BMP280;61204;49.980;8.358;2023-03-24T09:48:48;99312.97;;;11.70
72278;BMP280;61204;49.980;8.358;2023-03-24T09:56:56;99312.25;;;11.70
72278;BMP280;61204;49.980;8.358;2023-03-24T09:59:29;99328.22;;;11.73
72278;BMP280;61204;49.980;8.358;2023-03-24T10:02:17;99329.53;;;11.72
72278;BMP280;61204;49.980;8.358;2023-03-24T10:04:45;99330.97;;;11.73
72278;BMP280;61204;49.980;8.358;2023-03-24T10:07:20;99334.81;;;11.68
72278;BMP280;61204;49.980;8.358;2023-03-24T10:09:56;99336.59;;;11.62
72278;BMP280;61204;49.980;8.358;2023-03-24T10:26:04;99343.53;;;11.79
72278;BMP280;61204;49.980;8.358;2023-03-24T10:31:49;99342.13;;;12.23
72278;BMP280;61204;49.980;8.358;2023-03-24T10:34:25;99342.00;;;12.37
72278;BMP280;61204;49.980;8.358;2023-03-24T10:36:55;99345.47;;;12.53
72278;BMP280;61204;49.980;8.358;2023-03-24T10:39:23;99347.59;;;12.54
72278;BMP280;61204;49.980;8.358;2023-03-24T10:41:50;99352.28;;;12.52
72278;BMP280;61204;49.980;8.358;2023-03-24T10:44:17;99352.22;;;12.50
72278;BMP280;61204;49.980;8.358;2023-03-24T10:46:51;99352.09;;;12.48
72278;BMP280;61204;49.980;8.358;2023-03-24T10:49:21;99362.94;;;12.44
72278;BMP280;61204;49.980;8.358;2023-03-24T10:51:49;99364.91;;;12.41
72278;BMP280;61204;49.980;8.358;2023-03-24T10:54:24;99385.72;;;12.46
72278;BMP280;61204;49.980;8.358;2023-03-24T10:57:00;99393.53;;;12.52
72278;BMP280;61204;49.980;8.358;2023-03-24T10:59:51;99400.72;;;12.59
72278;BMP280;61204;49.980;8.358;2023-03-24T11:02:31;99394.06;;;12.64
72278;BMP280;61204;49.980;8.358;2023-03-24T11:07:41;99393.16;;;12.91
72278;BMP280;61204;49.980;8.358;2023-03-24T11:12:40;99452.25;;;13.06
72278;BMP280;61204;49.980;8.358;2023-03-24T11:20:53;99459.34;;;13.45
72278;BMP280;61204;49.980;8.358;2023-03-24T11:23:32;99451.50;;;13.72
72278;BMP280;61204;49.980;8.358;2023-03-24T11:28:51;99532.88;;;14.09
72278;BMP280;61204;49.980;8.358;2023-03-24T11:31:30;99551.22;;;14.20
72278;BMP280;61204;49.980;8.358;2023-03-24T11:36:58;99587.50;;;15.06
72278;BMP280;61204;49.980;8.358;2023-03-24T11:39:29;99588.50;;;15.54
72278;BMP280;61204;49.980;8.358;2023-03-24T11:42:02;99597.69;;;15.81
72278;BMP280;61204;49.980;8.358;2023-03-24T11:47:09;99606.97;;;15.91
72278;BMP280;61204;49.980;8.358;2023-03-24T11:50:30;99616.41;;;16.26
72278;BMP280;61204;49.980;8.358;2023-03-24T11:52:35;99630.25;;;16.50
72278;BMP280;61204;49.980;8.358;2023-03-24T12:09:20;99621.16;;;17.71
72278;BMP280;61204;49.980;8.358;2023-03-24T12:22:59;99629.78;;;18.13
72278;BMP280;61204;49.980;8.358;2023-03-24T12:34:31;99625.25;;;18.26
72278;BMP280;61204;49.980;8.358;2023-03-24T12:42:47;99632.97;;;18.31
72278;BMP280;61204;49.980;8.358;2023-03-24T12:45:49;99621.09;;;18.93
72278;BMP280;61204;49.980;8.358;2023-03-24T12:59:27;99612.00;;;20.13
72278;BMP280;61204;49.980;8.358;2023-03-24T13:02:11;99627.19;;;20.04
72278;BMP280;61204;49.980;8.358;2023-03-24T13:04:51;99630.50;;;19.92
72278;BMP280;61204;49.980;8.358;2023-03-24T13:07:24;99612.22;;;19.81
72278;BMP280;61204;49.980;8.358;2023-03-24T13:09:56;99600.84;;;19.64
72278;BMP280;61204;49.980;8.358;2023-03-24T13:15:39;99607.06;;;18.85
72278;BMP280;61204;49.980;8.358;2023-03-24T13:21:17;99610.03;;;19.73
72278;BMP280;61204;49.980;8.358;2023-03-24T13:23:48;99598.47;;;20.39
72278;BMP280;61204;49.980;8.358;2023-03-24T13:32:36;99603.16;;;20.83
72278;BMP280;61204;49.980;8.358;2023-03-24T13:35:12;99607.47;;;20.94
72278;BMP280;61204;49.980;8.358;2023-03-24T13:38:00;99597.78;;;21.01
72278;BMP280;61204;49.980;8.358;2023-03-24T13:40:36;99589.91;;;20.81
72278;BMP280;61204;49.980;8.358;2023-03-24T13:43:17;99576.59;;;20.78
72278;BMP280;61204;49.980;8.358;2023-03-24T13:45:50;99580.34;;;21.03
72278;BMP280;61204;49.980;8.358;2023-03-24T13:54:36;99588.88;;;20.52
72278;BMP280;61204;49.980;8.358;2023-03-24T13:56:51;99587.66;;;20.70
72278;BMP280;61204;49.980;8.358;2023-03-24T14:23:24;99556.44;;;20.19
72278;BMP280;61204;49.980;8.358;2023-03-24T14:28:48;99555.94;;;20.37
72278;BMP280;61204;49.980;8.358;2023-03-24T14:31:21;99551.94;;;20.48
72278;BMP280;61204;49.980;8.358;2023-03-24T14:38:55;99558.47;;;19.66
72278;BMP280;61204;49.980;8.358;2023-03-24T14:41:32;99560.03;;;19.35
72278;BMP280;61204;49.980;8.358;2023-03-24T14:44:03;99570.63;;;19.04
72278;BMP280;61204;49.980;8.358;2023-03-24T14:55:11;99571.25;;;18.31
72278;BMP280;61204;49.980;8.358;2023-03-24T14:57:44;99560.13;;;17.99
72278;BMP280;61204;49.980;8.358;2023-03-24T15:02:47;99556.59;;;17.96
72278;BMP280;61204;49.980;8.358;2023-03-24T15:05:20;99544.09;;;17.95
72278;BMP280;61204;49.980;8.358;2023-03-24T15:13:54;99560.00;;;17.65
72278;BMP280;61204;49.980;8.358;2023-03-24T15:19:08;99555.13;;;17.63
72278;BMP280;61204;49.980;8.358;2023-03-24T15:21:58;99554.44;;;17.63
72278;BMP280;61204;49.980;8.358;2023-03-24T15:24:31;99547.53;;;17.64
72278;BMP280;61204;49.980;8.358;2023-03-24T15:29:35;99544.75;;;17.64
72278;BMP280;61204;49.980;8.358;2023-03-24T15:32:04;99543.16;;;17.55
72278;BMP280;61204;49.980;8.358;2023-03-24T15:34:41;99548.66;;;17.27
72278;BMP280;61204;49.980;8.358;2023-03-24T15:37:18;99538.28;;;17.27
72278;BMP280;61204;49.980;8.358;2023-03-24T15:40:29;99544.69;;;17.34
72278;BMP280;61204;49.980;8.358;2023-03-24T15:42:57;99542.03;;;17.38
72278;BMP280;61204;49.980;8.358;2023-03-24T15:45:33;99537.19;;;17.38
72278;BMP280;61204;49.980;8.358;2023-03-24T15:48:07;99534.38;;;17.36
72278;BMP280;61204;49.980;8.358;2023-03-24T15:50:41;99534.28;;;17.32
72278;BMP280;61204;49.980;8.358;2023-03-24T15:53:22;99539.56;;;17.22
72278;BMP280;61204;49.980;8.358;2023-03-24T15:58:54;99541.25;;;17.07
72278;BMP280;61204;49.980;8.358;2023-03-24T16:01:37;99544.00;;;17.05
72278;BMP280;61204;49.980;8.358;2023-03-24T16:04:06;99540.22;;;16.95
72278;BMP280;61204;49.980;8.358;2023-03-24T16:06:40;99537.34;;;16.90
72278;BMP280;61204;49.980;8.358;2023-03-24T16:09:13;99540.00;;;16.86
72278;BMP280;61204;49.980;8.358;2023-03-24T16:11:40;99547.84;;;16.70
72278;BMP280;61204;49.980;8.358;2023-03-24T16:14:17;99532.63;;;16.69
72278;BMP280;61204;49.980;8.358;2023-03-24T16:17:01;99539.97;;;16.60
72278;BMP280;61204;49.980;8.358;2023-03-24T16:19:27;99539.31;;;16.62
72278;BMP280;61204;49.980;8.358;2023-03-24T16:21:53;99538.59;;;16.61
72278;BMP280;61204;49.980;8.358;2023-03-24T16:24:19;99547.72;;;16.66
72278;BMP280;61204;49.980;8.358;2023-03-24T16:26:45;99541.00;;;16.73
72278;BMP280;61204;49.980;8.358;2023-03-24T16:31:37;99539.44;;;16.90
72278;BMP280;61204;49.980;8.358;2023-03-24T16:34:03;99543.25;;;16.79
72278;BMP280;61204;49.980;8.358;2023-03-24T16:36:29;99536.44;;;16.58
72278;BMP280;61204;49.980;8.358;2023-03-24T16:38:56;99544.56;;;16.52
72278;BMP280;61204;49.980;8.358;2023-03-24T16:41:23;99543.69;;;16.45
72278;BMP280;61204;49.980;8.358;2023-03-24T16:43:50;99542.13;;;16.40
72278;BMP280;61204;49.980;8.358;2023-03-24T16:46:21;99544.31;;;16.44
72278;BMP280;61204;49.980;8.358;2023-03-24T16:48:56;99545.09;;;16.46
72278;BMP280;61204;49.980;8.358;2023-03-24T16:51:24;99546.94;;;16.38
72278;BMP280;61204;49.980;8.358;2023-03-24T16:53:51;99546.94;;;16.38
72278;BMP280;61204;49.980;8.358;2023-03-24T16:56:17;99552.38;;;16.36
72278;BMP280;61204;49.980;8.358;2023-03-24T16:58:46;99551.81;;;16.17
72278;BMP280;61204;49.980;8.358;2023-03-24T17:01:54;99554.94;;;16.06
72278;BMP280;61204;49.980;8.358;2023-03-24T17:06:44;99554.28;;;15.85
72278;BMP280;61204;49.980;8.358;2023-03-24T17:09:13;99559.03;;;15.83
72278;BMP280;61204;49.980;8.358;2023-03-24T17:11:40;99562.25;;;15.75
72278;BMP280;61204;49.980;8.358;2023-03-24T17:14:09;99562.56;;;15.63
72278;BMP280;61204;49.980;8.358;2023-03-24T17:16:39;99562.31;;;15.55
72278;BMP280;61204;49.980;8.358;2023-03-24T17:19:08;99573.13;;;15.49
72278;BMP280;61204;49.980;8.358;2023-03-24T17:21:41;99572.19;;;15.42
72278;BMP280;61204;49.980;8.358;2023-03-24T17:24:31;99557.25;;;15.28
72278;BMP280;61204;49.980;8.358;2023-03-24T17:26:59;99572.72;;;15.17
72278;BMP280;61204;49.980;8.358;2023-03-24T17:29:27;99582.13;;;15.10
72278;BMP280;61204;49.980;8.358;2023-03-24T17:31:52;99579.09;;;15.02
72278;BMP280;61204;49.980;8.358;2023-03-24T17:34:18;99587.69;;;14.92
72278;BMP280;61204;49.980;8.358;2023-03-24T17:36:45;99597.09;;;14.85
72278;BMP280;61204;49.980;8.358;2023-03-24T17:39:13;99597.44;;;14.75
72278;BMP280;61204;49.980;8.358;2023-03-24T17:41:41;99598.16;;;14.76
72278;BMP280;61204;49.980;8.358;2023-03-24T17:44:07;99594.13;;;14.79
72278;BMP280;61204;49.980;8.358;2023-03-24T17:46:32;99593.78;;;14.71
72278;BMP280;61204;49.980;8.358;2023-03-24T17:48:58;99594.84;;;14.62
72278;BMP280;61204;49.980;8.358;2023-03-24T17:51:23;99612.28;;;14.48
72278;BMP280;61204;49.980;8.358;2023-03-24T17:53:52;99615.63;;;14.29
72278;BMP280;61204;49.980;8.358;2023-03-24T17:56:17;99608.72;;;14.28
72278;BMP280;61204;49.980;8.358;2023-03-24T17:58:44;99613.66;;;14.14
72278;BMP280;61204;49.980;8.358;2023-03-24T18:01:11;99621.53;;;14.04
72278;BMP280;61204;49.980;8.358;2023-03-24T18:03:38;99621.09;;;13.93
72278;BMP280;61204;49.980;8.358;2023-03-24T18:06:10;99630.69;;;13.92
72278;BMP280;61204;49.980;8.358;2023-03-24T18:08:39;99615.16;;;13.83
72278;BMP280;61204;49.980;8.358;2023-03-24T18:11:05;99626.66;;;13.78
72278;BMP280;61204;49.980;8.358;2023-03-24T18:13:38;99618.13;;;13.71
72278;BMP280;61204;49.980;8.358;2023-03-24T18:16:05;99625.56;;;13.69
72278;BMP280;61204;49.980;8.358;2023-03-24T18:18:32;99622.22;;;13.70